sensor_id;sensor_type;location;lat;lon;timestamp;P1;P2;P0
72793;PMS5003;63436;26.334;50.194;2022-12-18T00:01:29;88;83;
72793;PMS5003;63436;26.334;50.194;2022-12-18T00:03:53;87;79;
72793;PMS5003;63436;26.334;50.194;2022-12-18T00:06:19;86;79;
72793;PMS5003;63436;26.334;50.194;2022-12-18T00:08:45;84;78;
72793;PMS5003;63436;26.334;50.194;2022-12-18T00:11:11;84;81;
72793;PMS5003;63436;26.334;50.194;2022-12-18T00:13:35;84;76;
72793;PMS5003;63436;26.334;50.194;2022-12-18T00:16:03;78;71;
72793;PMS5003;63436;26.334;50.194;2022-12-18T00:18:27;87;74;
72793;PMS5003;63436;26.334;50.194;2022-12-18T00:20:57;85;79;
72793;PMS5003;63436;26.334;50.194;2022-12-18T00:23:18;73;72;
72793;PMS5003;63436;26.334;50.194;2022-12-18T00:25:43;85;76;
72793;PMS5003;63436;26.334;50.194;2022-12-18T00:28:08;75;73;
72793;PMS5003;63436;26.334;50.194;2022-12-18T00:30:35;81;76;
72793;PMS5003;63436;26.334;50.194;2022-12-18T00:32:59;75;69;
72793;PMS5003;63436;26.334;50.194;2022-12-18T00:35:25;72;66;
72793;PMS5003;63436;26.334;50.194;2022-12-18T00:37:50;80;74;
72793;PMS5003;63436;26.334;50.194;2022-12-18T00:40:15;72;72;
72793;PMS5003;63436;26.334;50.194;2022-12-18T00:42:41;77;69;
72793;PMS5003;63436;26.334;50.194;2022-12-18T00:45:06;72;67;
72793;PMS5003;63436;26.334;50.194;2022-12-18T00:47:31;68;66;
72793;PMS5003;63436;26.334;50.194;2022-12-18T00:49:56;71;65;
72793;PMS5003;63436;26.334;50.194;2022-12-18T00:52:22;68;58;
72793;PMS5003;63436;26.334;50.194;2022-12-18T00:54:47;65;61;
72793;PMS5003;63436;26.334;50.194;2022-12-18T00:57:12;71;67;
72793;PMS5003;63436;26.334;50.194;2022-12-18T00:59:38;68;63;
72793;PMS5003;63436;26.334;50.194;2022-12-18T01:02:04;66;61;
72793;PMS5003;63436;26.334;50.194;2022-12-18T01:04:30;63;58;
72793;PMS5003;63436;26.334;50.194;2022-12-18T01:06:55;64;62;
72793;PMS5003;63436;26.334;50.194;2022-12-18T01:09:20;60;56;
72793;PMS5003;63436;26.334;50.194;2022-12-18T01:11:45;64;57;
72793;PMS5003;63436;26.334;50.194;2022-12-18T01:14:11;71;63;
72793;PMS5003;63436;26.334;50.194;2022-12-18T01:16:36;71;64;
72793;PMS5003;63436;26.334;50.194;2022-12-18T01:19:02;68;61;
72793;PMS5003;63436;26.334;50.194;2022-12-18T01:21:27;63;61;
72793;PMS5003;63436;26.334;50.194;2022-12-18T01:23:53;72;65;
72793;PMS5003;63436;26.334;50.194;2022-12-18T01:26:18;58;57;
72793;PMS5003;63436;26.334;50.194;2022-12-18T01:28:43;66;61;
72793;PMS5003;63436;26.334;50.194;2022-12-18T01:31:10;67;62;
72793;PMS5003;63436;26.334;50.194;2022-12-18T01:33:35;63;61;
72793;PMS5003;63436;26.334;50.194;2022-12-18T01:36:01;72;64;
72793;PMS5003;63436;26.334;50.194;2022-12-18T01:38:28;66;63;
72793;PMS5003;63436;26.334;50.194;2022-12-18T01:40:56;75;65;
72793;PMS5003;63436;26.334;50.194;2022-12-18T01:43:17;63;63;
72793;PMS5003;63436;26.334;50.194;2022-12-18T01:45:42;65;62;
72793;PMS5003;63436;26.334;50.194;2022-12-18T01:48:08;76;64;
72793;PMS5003;63436;26.334;50.194;2022-12-18T01:50:35;73;65;
72793;PMS5003;63436;26.334;50.194;2022-12-18T01:53:06;72;66;
72793;PMS5003;63436;26.334;50.194;2022-12-18T01:55:25;68;64;
72793;PMS5003;63436;26.334;50.194;2022-12-18T01:57:50;70;62;
72793;PMS5003;63436;26.334;50.194;2022-12-18T02:00:16;64;58;
72793;PMS5003;63436;26.334;50.194;2022-12-18T02:02:40;69;66;
72793;PMS5003;63436;26.334;50.194;2022-12-18T02:05:06;73;66;
72793;PMS5003;63436;26.334;50.194;2022-12-18T02:07:33;70;64;
72793;PMS5003;63436;26.334;50.194;2022-12-18T02:09:58;67;65;
72793;PMS5003;63436;26.334;50.194;2022-12-18T02:12:22;66;59;
72793;PMS5003;63436;26.334;50.194;2022-12-18T02:14:49;70;63;
72793;PMS5003;63436;26.334;50.194;2022-12-18T02:17:13;68;65;
72793;PMS5003;63436;26.334;50.194;2022-12-18T02:19:44;74;62;
72793;PMS5003;63436;26.334;50.194;2022-12-18T02:22:06;70;62;
72793;PMS5003;63436;26.334;50.194;2022-12-18T02:24:30;75;70;
72793;PMS5003;63436;26.334;50.194;2022-12-18T02:26:55;69;66;
72793;PMS5003;63436;26.334;50.194;2022-12-18T02:29:21;70;65;
72793;PMS5003;63436;26.334;50.194;2022-12-18T02:31:47;66;61;
72793;PMS5003;63436;26.334;50.194;2022-12-18T02:34:11;68;62;
72793;PMS5003;63436;26.334;50.194;2022-12-18T02:36:36;72;64;
72793;PMS5003;63436;26.334;50.194;2022-12-18T02:39:01;64;59;
72793;PMS5003;63436;26.334;50.194;2022-12-18T02:41:27;66;64;
72793;PMS5003;63436;26.334;50.194;2022-12-18T02:43:55;71;62;
72793;PMS5003;63436;26.334;50.194;2022-12-18T02:46:25;73;66;
72793;PMS5003;63436;26.334;50.194;2022-12-18T02:48:42;72;65;
72793;PMS5003;63436;26.334;50.194;2022-12-18T02:51:11;69;66;
72793;PMS5003;63436;26.334;50.194;2022-12-18T02:56:02;65;59;
72793;PMS5003;63436;26.334;50.194;2022-12-18T02:58:27;64;62;
72793;PMS5003;63436;26.334;50.194;2022-12-18T03:00:53;76;72;
72793;PMS5003;63436;26.334;50.194;2022-12-18T03:03:18;68;64;
72793;PMS5003;63436;26.334;50.194;2022-12-18T03:05:43;68;64;
72793;PMS5003;63436;26.334;50.194;2022-12-18T03:08:08;74;71;
72793;PMS5003;63436;26.334;50.194;2022-12-18T03:10:35;80;70;
72793;PMS5003;63436;26.334;50.194;2022-12-18T03:13:00;82;70;
72793;PMS5003;63436;26.334;50.194;2022-12-18T03:15:24;71;67;
72793;PMS5003;63436;26.334;50.194;2022-12-18T03:17:54;84;73;
72793;PMS5003;63436;26.334;50.194;2022-12-18T03:20:15;71;68;
72793;PMS5003;63436;26.334;50.194;2022-12-18T03:22:40;78;71;
72793;PMS5003;63436;26.334;50.194;2022-12-18T03:25:06;74;69;
72793;PMS5003;63436;26.334;50.194;2022-12-18T03:27:31;74;70;
72793;PMS5003;63436;26.334;50.194;2022-12-18T03:29:58;72;69;
72793;PMS5003;63436;26.334;50.194;2022-12-18T03:32:23;74;70;
72793;PMS5003;63436;26.334;50.194;2022-12-18T03:34:48;71;67;
72793;PMS5003;63436;26.334;50.194;2022-12-18T03:37:12;73;65;
72793;PMS5003;63436;26.334;50.194;2022-12-18T03:39:38;76;71;
72793;PMS5003;63436;26.334;50.194;2022-12-18T03:42:04;71;68;
72793;PMS5003;63436;26.334;50.194;2022-12-18T03:44:29;80;75;
72793;PMS5003;63436;26.334;50.194;2022-12-18T03:46:56;80;74;
72793;PMS5003;63436;26.334;50.194;2022-12-18T03:49:21;78;71;
72793;PMS5003;63436;26.334;50.194;2022-12-18T03:51:47;81;74;
72793;PMS5003;63436;26.334;50.194;2022-12-18T03:54:11;88;75;
72793;PMS5003;63436;26.334;50.194;2022-12-18T03:56:38;92;81;
72793;PMS5003;63436;26.334;50.194;2022-12-18T03:59:02;83;78;
72793;PMS5003;63436;26.334;50.194;2022-12-18T04:01:30;93;83;
72793;PMS5003;63436;26.334;50.194;2022-12-18T04:03:53;87;82;
72793;PMS5003;63436;26.334;50.194;2022-12-18T04:06:18;112;89;
72793;PMS5003;63436;26.334;50.194;2022-12-18T04:08:43;95;84;
72793;PMS5003;63436;26.334;50.194;2022-12-18T04:11:08;92;86;
72793;PMS5003;63436;26.334;50.194;2022-12-18T04:13:35;99;87;
72793;PMS5003;63436;26.334;50.194;2022-12-18T04:15:59;86;80;
72793;PMS5003;63436;26.334;50.194;2022-12-18T04:18:24;87;85;
72793;PMS5003;63436;26.334;50.194;2022-12-18T04:20:50;92;81;
72793;PMS5003;63436;26.334;50.194;2022-12-18T04:23:16;90;86;
72793;PMS5003;63436;26.334;50.194;2022-12-18T04:25:42;99;90;
72793;PMS5003;63436;26.334;50.194;2022-12-18T04:28:07;99;90;
72793;PMS5003;63436;26.334;50.194;2022-12-18T04:30:33;96;89;
72793;PMS5003;63436;26.334;50.194;2022-12-18T04:32:58;100;93;
72793;PMS5003;63436;26.334;50.194;2022-12-18T04:35:23;101;88;
72793;PMS5003;63436;26.334;50.194;2022-12-18T04:37:49;98;92;
72793;PMS5003;63436;26.334;50.194;2022-12-18T04:40:14;104;93;
72793;PMS5003;63436;26.334;50.194;2022-12-18T04:42:40;104;96;
72793;PMS5003;63436;26.334;50.194;2022-12-18T04:45:06;107;96;
72793;PMS5003;63436;26.334;50.194;2022-12-18T04:47:30;109;98;
72793;PMS5003;63436;26.334;50.194;2022-12-18T04:49:56;115;98;
72793;PMS5003;63436;26.334;50.194;2022-12-18T04:52:21;108;101;
72793;PMS5003;63436;26.334;50.194;2022-12-18T04:54:47;102;94;
72793;PMS5003;63436;26.334;50.194;2022-12-18T04:57:12;107;91;
72793;PMS5003;63436;26.334;50.194;2022-12-18T04:59:38;91;86;
72793;PMS5003;63436;26.334;50.194;2022-12-18T05:02:03;97;92;
72793;PMS5003;63436;26.334;50.194;2022-12-18T05:04:28;104;93;
72793;PMS5003;63436;26.334;50.194;2022-12-18T05:06:53;101;91;
72793;PMS5003;63436;26.334;50.194;2022-12-18T05:09:19;98;89;
72793;PMS5003;63436;26.334;50.194;2022-12-18T05:11:45;99;90;
72793;PMS5003;63436;26.334;50.194;2022-12-18T05:14:10;107;97;
72793;PMS5003;63436;26.334;50.194;2022-12-18T05:16:36;95;89;
72793;PMS5003;63436;26.334;50.194;2022-12-18T05:19:01;105;93;
72793;PMS5003;63436;26.334;50.194;2022-12-18T05:21:27;95;90;
72793;PMS5003;63436;26.334;50.194;2022-12-18T05:23:52;110;103;
72793;PMS5003;63436;26.334;50.194;2022-12-18T05:26:18;104;99;
72793;PMS5003;63436;26.334;50.194;2022-12-18T05:28:43;106;96;
72793;PMS5003;63436;26.334;50.194;2022-12-18T05:31:09;102;92;
72793;PMS5003;63436;26.334;50.194;2022-12-18T05:33:34;104;92;
72793;PMS5003;63436;26.334;50.194;2022-12-18T05:36:00;113;102;
72793;PMS5003;63436;26.334;50.194;2022-12-18T05:38:26;101;97;
72793;PMS5003;63436;26.334;50.194;2022-12-18T05:40:51;102;96;
72793;PMS5003;63436;26.334;50.194;2022-12-18T05:43:17;102;96;
72793;PMS5003;63436;26.334;50.194;2022-12-18T05:45:42;109;100;
72793;PMS5003;63436;26.334;50.194;2022-12-18T05:48:08;99;96;
72793;PMS5003;63436;26.334;50.194;2022-12-18T05:50:34;105;96;
72793;PMS5003;63436;26.334;50.194;2022-12-18T05:52:58;108;104;
72793;PMS5003;63436;26.334;50.194;2022-12-18T05:55:24;108;101;
72793;PMS5003;63436;26.334;50.194;2022-12-18T05:57:49;112;100;
72793;PMS5003;63436;26.334;50.194;2022-12-18T06:00:15;110;99;
72793;PMS5003;63436;26.334;50.194;2022-12-18T06:02:40;112;104;
72793;PMS5003;63436;26.334;50.194;2022-12-18T06:05:05;106;101;
72793;PMS5003;63436;26.334;50.194;2022-12-18T06:07:31;105;100;
72793;PMS5003;63436;26.334;50.194;2022-12-18T06:09:56;104;99;
72793;PMS5003;63436;26.334;50.194;2022-12-18T06:12:22;112;104;
72793;PMS5003;63436;26.334;50.194;2022-12-18T06:14:48;104;101;
72793;PMS5003;63436;26.334;50.194;2022-12-18T06:17:13;107;101;
72793;PMS5003;63436;26.334;50.194;2022-12-18T06:19:38;109;102;
72793;PMS5003;63436;26.334;50.194;2022-12-18T06:22:05;120;108;
72793;PMS5003;63436;26.334;50.194;2022-12-18T06:24:30;112;101;
72793;PMS5003;63436;26.334;50.194;2022-12-18T06:26:55;114;102;
72793;PMS5003;63436;26.334;50.194;2022-12-18T06:29:20;114;104;
72793;PMS5003;63436;26.334;50.194;2022-12-18T06:31:46;113;104;
72793;PMS5003;63436;26.334;50.194;2022-12-18T06:34:11;117;106;
72793;PMS5003;63436;26.334;50.194;2022-12-18T06:36:37;113;104;
72793;PMS5003;63436;26.334;50.194;2022-12-18T06:39:02;113;105;
72793;PMS5003;63436;26.334;50.194;2022-12-18T06:41:28;118;106;
72793;PMS5003;63436;26.334;50.194;2022-12-18T06:43:53;109;97;
72793;PMS5003;63436;26.334;50.194;2022-12-18T06:46:18;100;94;
72793;PMS5003;63436;26.334;50.194;2022-12-18T06:48:46;105;100;
72793;PMS5003;63436;26.334;50.194;2022-12-18T06:51:09;112;103;
72793;PMS5003;63436;26.334;50.194;2022-12-18T06:53:35;104;99;
72793;PMS5003;63436;26.334;50.194;2022-12-18T06:56:00;116;100;
72793;PMS5003;63436;26.334;50.194;2022-12-18T06:58:25;113;108;
72793;PMS5003;63436;26.334;50.194;2022-12-18T07:00:51;104;97;
72793;PMS5003;63436;26.334;50.194;2022-12-18T07:03:17;104;98;
72793;PMS5003;63436;26.334;50.194;2022-12-18T07:05:42;114;104;
72793;PMS5003;63436;26.334;50.194;2022-12-18T07:08:07;111;102;
72793;PMS5003;63436;26.334;50.194;2022-12-18T07:10:33;108;100;
72793;PMS5003;63436;26.334;50.194;2022-12-18T07:12:58;99;95;
72793;PMS5003;63436;26.334;50.194;2022-12-18T07:15:23;108;96;
72793;PMS5003;63436;26.334;50.194;2022-12-18T07:17:48;119;109;
72793;PMS5003;63436;26.334;50.194;2022-12-18T07:20:14;113;107;
72793;PMS5003;63436;26.334;50.194;2022-12-18T07:22:39;110;101;
72793;PMS5003;63436;26.334;50.194;2022-12-18T07:25:05;111;108;
72793;PMS5003;63436;26.334;50.194;2022-12-18T07:27:30;108;103;
72793;PMS5003;63436;26.334;50.194;2022-12-18T07:29:55;110;104;
72793;PMS5003;63436;26.334;50.194;2022-12-18T07:32:21;106;103;
72793;PMS5003;63436;26.334;50.194;2022-12-18T07:34:47;119;107;
72793;PMS5003;63436;26.334;50.194;2022-12-18T07:37:11;109;106;
72793;PMS5003;63436;26.334;50.194;2022-12-18T07:39:37;109;96;
72793;PMS5003;63436;26.334;50.194;2022-12-18T07:42:03;105;98;
72793;PMS5003;63436;26.334;50.194;2022-12-18T07:44:28;110;106;
72793;PMS5003;63436;26.334;50.194;2022-12-18T07:46:53;108;102;
72793;PMS5003;63436;26.334;50.194;2022-12-18T07:49:19;120;110;
72793;PMS5003;63436;26.334;50.194;2022-12-18T07:51:44;114;106;
72793;PMS5003;63436;26.334;50.194;2022-12-18T07:54:09;117;110;
72793;PMS5003;63436;26.334;50.194;2022-12-18T07:56:34;117;102;
72793;PMS5003;63436;26.334;50.194;2022-12-18T07:59:00;113;107;
72793;PMS5003;63436;26.334;50.194;2022-12-18T08:01:25;115;107;
72793;PMS5003;63436;26.334;50.194;2022-12-18T08:03:51;111;103;
72793;PMS5003;63436;26.334;50.194;2022-12-18T08:06:16;123;110;
72793;PMS5003;63436;26.334;50.194;2022-12-18T08:08:41;125;115;
72793;PMS5003;63436;26.334;50.194;2022-12-18T08:11:07;121;109;
72793;PMS5003;63436;26.334;50.194;2022-12-18T08:13:32;119;107;
72793;PMS5003;63436;26.334;50.194;2022-12-18T08:15:58;106;101;
72793;PMS5003;63436;26.334;50.194;2022-12-18T08:18:24;103;95;
72793;PMS5003;63436;26.334;50.194;2022-12-18T08:20:49;107;101;
72793;PMS5003;63436;26.334;50.194;2022-12-18T08:23:15;105;95;
72793;PMS5003;63436;26.334;50.194;2022-12-18T08:25:40;106;98;
72793;PMS5003;63436;26.334;50.194;2022-12-18T08:28:10;93;91;
72793;PMS5003;63436;26.334;50.194;2022-12-18T08:30:30;102;96;
72793;PMS5003;63436;26.334;50.194;2022-12-18T08:32:56;109;99;
72793;PMS5003;63436;26.334;50.194;2022-12-18T08:35:21;104;100;
72793;PMS5003;63436;26.334;50.194;2022-12-18T08:37:47;102;95;
72793;PMS5003;63436;26.334;50.194;2022-12-18T08:40:12;104;99;
72793;PMS5003;63436;26.334;50.194;2022-12-18T08:42:37;103;94;
72793;PMS5003;63436;26.334;50.194;2022-12-18T08:45:03;107;100;
72793;PMS5003;63436;26.334;50.194;2022-12-18T08:47:29;105;97;
72793;PMS5003;63436;26.334;50.194;2022-12-18T08:49:54;107;101;
72793;PMS5003;63436;26.334;50.194;2022-12-18T08:52:19;116;108;
72793;PMS5003;63436;26.334;50.194;2022-12-18T08:54:45;112;104;
72793;PMS5003;63436;26.334;50.194;2022-12-18T08:57:10;113;100;
72793;PMS5003;63436;26.334;50.194;2022-12-18T08:59:36;119;111;
72793;PMS5003;63436;26.334;50.194;2022-12-18T09:02:01;117;106;
72793;PMS5003;63436;26.334;50.194;2022-12-18T09:04:27;113;111;
72793;PMS5003;63436;26.334;50.194;2022-12-18T09:06:52;123;114;
72793;PMS5003;63436;26.334;50.194;2022-12-18T09:09:17;112;106;
72793;PMS5003;63436;26.334;50.194;2022-12-18T09:11:43;116;108;
72793;PMS5003;63436;26.334;50.194;2022-12-18T09:14:09;109;101;
72793;PMS5003;63436;26.334;50.194;2022-12-18T09:16:34;108;102;
72793;PMS5003;63436;26.334;50.194;2022-12-18T09:19:00;119;107;
72793;PMS5003;63436;26.334;50.194;2022-12-18T09:21:26;99;91;
72793;PMS5003;63436;26.334;50.194;2022-12-18T09:23:50;107;102;
72793;PMS5003;63436;26.334;50.194;2022-12-18T09:26:16;105;102;
72793;PMS5003;63436;26.334;50.194;2022-12-18T09:28:41;98;92;
72793;PMS5003;63436;26.334;50.194;2022-12-18T09:31:07;108;98;
72793;PMS5003;63436;26.334;50.194;2022-12-18T09:33:31;95;89;
72793;PMS5003;63436;26.334;50.194;2022-12-18T09:35:57;99;97;
72793;PMS5003;63436;26.334;50.194;2022-12-18T09:38:23;95;87;
72793;PMS5003;63436;26.334;50.194;2022-12-18T09:40:49;103;93;
72793;PMS5003;63436;26.334;50.194;2022-12-18T09:43:14;101;91;
72793;PMS5003;63436;26.334;50.194;2022-12-18T09:45:40;104;93;
72793;PMS5003;63436;26.334;50.194;2022-12-18T09:48:04;98;91;
72793;PMS5003;63436;26.334;50.194;2022-12-18T09:50:31;93;85;
72793;PMS5003;63436;26.334;50.194;2022-12-18T09:52:56;91;88;
72793;PMS5003;63436;26.334;50.194;2022-12-18T09:55:23;91;88;
72793;PMS5003;63436;26.334;50.194;2022-12-18T09:57:49;94;91;
72793;PMS5003;63436;26.334;50.194;2022-12-18T10:00:15;102;91;
72793;PMS5003;63436;26.334;50.194;2022-12-18T10:02:38;89;83;
72793;PMS5003;63436;26.334;50.194;2022-12-18T10:05:05;94;82;
72793;PMS5003;63436;26.334;50.194;2022-12-18T10:07:32;104;90;
72793;PMS5003;63436;26.334;50.194;2022-12-18T10:09:57;98;84;
72793;PMS5003;63436;26.334;50.194;2022-12-18T10:12:21;86;80;
72793;PMS5003;63436;26.334;50.194;2022-12-18T10:14:47;85;83;
72793;PMS5003;63436;26.334;50.194;2022-12-18T10:17:13;116;113;
72793;PMS5003;63436;26.334;50.194;2022-12-18T10:19:38;102;98;
72793;PMS5003;63436;26.334;50.194;2022-12-18T10:22:07;105;93;
72793;PMS5003;63436;26.334;50.194;2022-12-18T10:24:30;101;95;
72793;PMS5003;63436;26.334;50.194;2022-12-18T10:26:54;95;93;
72793;PMS5003;63436;26.334;50.194;2022-12-18T10:29:19;92;89;
72793;PMS5003;63436;26.334;50.194;2022-12-18T10:31:44;82;80;
72793;PMS5003;63436;26.334;50.194;2022-12-18T10:34:10;106;100;
72793;PMS5003;63436;26.334;50.194;2022-12-18T10:36:35;95;90;
72793;PMS5003;63436;26.334;50.194;2022-12-18T10:41:26;101;91;
72793;PMS5003;63436;26.334;50.194;2022-12-18T10:43:53;89;86;
72793;PMS5003;63436;26.334;50.194;2022-12-18T10:46:17;87;82;
72793;PMS5003;63436;26.334;50.194;2022-12-18T10:51:07;88;85;
72793;PMS5003;63436;26.334;50.194;2022-12-18T10:53:34;90;83;
72793;PMS5003;63436;26.334;50.194;2022-12-18T10:55:58;84;80;
72793;PMS5003;63436;26.334;50.194;2022-12-18T10:58:24;91;87;
72793;PMS5003;63436;26.334;50.194;2022-12-18T11:05:40;89;88;
72793;PMS5003;63436;26.334;50.194;2022-12-18T11:08:10;89;84;
72793;PMS5003;63436;26.334;50.194;2022-12-18T11:10:32;92;88;
72793;PMS5003;63436;26.334;50.194;2022-12-18T11:15:23;91;87;
72793;PMS5003;63436;26.334;50.194;2022-12-18T11:17:48;95;84;
72793;PMS5003;63436;26.334;50.194;2022-12-18T11:22:38;97;91;
72793;PMS5003;63436;26.334;50.194;2022-12-18T11:25:05;91;88;
72793;PMS5003;63436;26.334;50.194;2022-12-18T11:27:29;99;93;
72793;PMS5003;63436;26.334;50.194;2022-12-18T11:32:24;90;86;
72793;PMS5003;63436;26.334;50.194;2022-12-18T11:34:45;101;86;
72793;PMS5003;63436;26.334;50.194;2022-12-18T11:37:11;96;88;
72793;PMS5003;63436;26.334;50.194;2022-12-18T11:39:37;93;91;
72793;PMS5003;63436;26.334;50.194;2022-12-18T11:42:04;92;83;
72793;PMS5003;63436;26.334;50.194;2022-12-18T11:44:29;96;89;
72793;PMS5003;63436;26.334;50.194;2022-12-18T11:46:55;93;86;
72793;PMS5003;63436;26.334;50.194;2022-12-18T11:49:20;89;80;
72793;PMS5003;63436;26.334;50.194;2022-12-18T11:51:47;93;86;
72793;PMS5003;63436;26.334;50.194;2022-12-18T11:54:10;95;87;
72793;PMS5003;63436;26.334;50.194;2022-12-18T11:56:35;109;98;
72793;PMS5003;63436;26.334;50.194;2022-12-18T11:59:04;96;87;
72793;PMS5003;63436;26.334;50.194;2022-12-18T12:01:30;88;84;
72793;PMS5003;63436;26.334;50.194;2022-12-18T12:03:57;89;82;
72793;PMS5003;63436;26.334;50.194;2022-12-18T12:06:19;88;88;
72793;PMS5003;63436;26.334;50.194;2022-12-18T12:08:46;92;86;
72793;PMS5003;63436;26.334;50.194;2022-12-18T12:11:09;88;87;
72793;PMS5003;63436;26.334;50.194;2022-12-18T12:13:37;99;90;
72793;PMS5003;63436;26.334;50.194;2022-12-18T12:16:03;93;86;
72793;PMS5003;63436;26.334;50.194;2022-12-18T12:18:25;102;95;
72793;PMS5003;63436;26.334;50.194;2022-12-18T12:20:50;95;93;
72793;PMS5003;63436;26.334;50.194;2022-12-18T12:23:15;95;87;
72793;PMS5003;63436;26.334;50.194;2022-12-18T12:25:40;97;94;
72793;PMS5003;63436;26.334;50.194;2022-12-18T12:28:10;93;91;
72793;PMS5003;63436;26.334;50.194;2022-12-18T12:30:33;99;95;
72793;PMS5003;63436;26.334;50.194;2022-12-18T12:33:02;93;90;
72793;PMS5003;63436;26.334;50.194;2022-12-18T12:35:25;99;90;
72793;PMS5003;63436;26.334;50.194;2022-12-18T12:37:49;87;80;
72793;PMS5003;63436;26.334;50.194;2022-12-18T12:40:13;94;87;
72793;PMS5003;63436;26.334;50.194;2022-12-18T12:42:39;96;88;
72793;PMS5003;63436;26.334;50.194;2022-12-18T12:45:05;90;88;
72793;PMS5003;63436;26.334;50.194;2022-12-18T12:47:30;102;95;
72793;PMS5003;63436;26.334;50.194;2022-12-18T12:49:54;94;88;
72793;PMS5003;63436;26.334;50.194;2022-12-18T12:52:21;95;89;
72793;PMS5003;63436;26.334;50.194;2022-12-18T12:54:45;103;90;
72793;PMS5003;63436;26.334;50.194;2022-12-18T12:57:12;102;95;
72793;PMS5003;63436;26.334;50.194;2022-12-18T12:59:37;97;96;
72793;PMS5003;63436;26.334;50.194;2022-12-18T13:02:04;99;94;
72793;PMS5003;63436;26.334;50.194;2022-12-18T13:04:30;106;99;
72793;PMS5003;63436;26.334;50.194;2022-12-18T13:06:54;101;96;
72793;PMS5003;63436;26.334;50.194;2022-12-18T13:09:19;97;94;
72793;PMS5003;63436;26.334;50.194;2022-12-18T13:11:45;98;94;
72793;PMS5003;63436;26.334;50.194;2022-12-18T13:16:35;111;106;
72793;PMS5003;63436;26.334;50.194;2022-12-18T13:19:01;108;98;
72793;PMS5003;63436;26.334;50.194;2022-12-18T13:21:28;114;105;
72793;PMS5003;63436;26.334;50.194;2022-12-18T13:23:52;105;101;
72793;PMS5003;63436;26.334;50.194;2022-12-18T13:28:50;118;107;
72793;PMS5003;63436;26.334;50.194;2022-12-18T13:31:08;121;114;
72793;PMS5003;63436;26.334;50.194;2022-12-18T13:33:38;117;110;
72793;PMS5003;63436;26.334;50.194;2022-12-18T13:36:01;120;111;
72793;PMS5003;63436;26.334;50.194;2022-12-18T13:38:32;127;118;
72793;PMS5003;63436;26.334;50.194;2022-12-18T13:40:54;119;109;
72793;PMS5003;63436;26.334;50.194;2022-12-18T13:45:42;111;107;
72793;PMS5003;63436;26.334;50.194;2022-12-18T13:50:31;117;110;
72793;PMS5003;63436;26.334;50.194;2022-12-18T13:52:56;112;105;
72793;PMS5003;63436;26.334;50.194;2022-12-18T13:55:22;109;105;
72793;PMS5003;63436;26.334;50.194;2022-12-18T13:57:48;117;111;
72793;PMS5003;63436;26.334;50.194;2022-12-18T14:00:23;122;114;
72793;PMS5003;63436;26.334;50.194;2022-12-18T14:02:39;111;106;
72793;PMS5003;63436;26.334;50.194;2022-12-18T14:05:05;108;105;
72793;PMS5003;63436;26.334;50.194;2022-12-18T14:07:30;116;109;
72793;PMS5003;63436;26.334;50.194;2022-12-18T14:09:57;104;101;
72793;PMS5003;63436;26.334;50.194;2022-12-18T14:12:22;109;105;
72793;PMS5003;63436;26.334;50.194;2022-12-18T14:14:47;109;101;
72793;PMS5003;63436;26.334;50.194;2022-12-18T14:17:11;95;91;
72793;PMS5003;63436;26.334;50.194;2022-12-18T14:19:41;102;95;
72793;PMS5003;63436;26.334;50.194;2022-12-18T14:22:03;95;90;
72793;PMS5003;63436;26.334;50.194;2022-12-18T14:24:28;90;87;
72793;PMS5003;63436;26.334;50.194;2022-12-18T14:26:54;91;83;
72793;PMS5003;63436;26.334;50.194;2022-12-18T14:29:21;88;83;
72793;PMS5003;63436;26.334;50.194;2022-12-18T14:31:45;96;90;
72793;PMS5003;63436;26.334;50.194;2022-12-18T14:34:14;98;95;
72793;PMS5003;63436;26.334;50.194;2022-12-18T14:36:36;98;98;
72793;PMS5003;63436;26.334;50.194;2022-12-18T14:39:02;96;91;
72793;PMS5003;63436;26.334;50.194;2022-12-18T14:41:27;114;109;
72793;PMS5003;63436;26.334;50.194;2022-12-18T14:43:53;103;96;
72793;PMS5003;63436;26.334;50.194;2022-12-18T14:46:27;105;102;
72793;PMS5003;63436;26.334;50.194;2022-12-18T14:48:43;114;108;
72793;PMS5003;63436;26.334;50.194;2022-12-18T14:53:36;117;113;
72793;PMS5003;63436;26.334;50.194;2022-12-18T14:56:00;109;106;
72793;PMS5003;63436;26.334;50.194;2022-12-18T14:58:25;105;101;
72793;PMS5003;63436;26.334;50.194;2022-12-18T15:00:51;108;105;
72793;PMS5003;63436;26.334;50.194;2022-12-18T15:03:18;110;106;
72793;PMS5003;63436;26.334;50.194;2022-12-18T15:05:42;106;101;
72793;PMS5003;63436;26.334;50.194;2022-12-18T15:10:33;116;110;
72793;PMS5003;63436;26.334;50.194;2022-12-18T15:13:15;112;107;
72793;PMS5003;63436;26.334;50.194;2022-12-18T15:17:55;119;112;
72793;PMS5003;63436;26.334;50.194;2022-12-18T15:20:15;107;104;
72793;PMS5003;63436;26.334;50.194;2022-12-18T15:22:40;121;115;
72793;PMS5003;63436;26.334;50.194;2022-12-18T15:27:33;121;114;
72793;PMS5003;63436;26.334;50.194;2022-12-18T15:30:01;132;123;
72793;PMS5003;63436;26.334;50.194;2022-12-18T15:32:23;125;114;
72793;PMS5003;63436;26.334;50.194;2022-12-18T15:34:49;131;122;
72793;PMS5003;63436;26.334;50.194;2022-12-18T15:37:13;120;110;
72793;PMS5003;63436;26.334;50.194;2022-12-18T15:39:39;121;108;
72793;PMS5003;63436;26.334;50.194;2022-12-18T15:42:07;125;120;
72793;PMS5003;63436;26.334;50.194;2022-12-18T15:44:30;126;122;
72793;PMS5003;63436;26.334;50.194;2022-12-18T15:46:56;120;116;
72793;PMS5003;63436;26.334;50.194;2022-12-18T15:49:21;119;115;
72793;PMS5003;63436;26.334;50.194;2022-12-18T15:51:46;121;118;
72793;PMS5003;63436;26.334;50.194;2022-12-18T15:54:13;123;116;
72793;PMS5003;63436;26.334;50.194;2022-12-18T15:56:37;133;121;
72793;PMS5003;63436;26.334;50.194;2022-12-18T15:59:04;129;120;
72793;PMS5003;63436;26.334;50.194;2022-12-18T16:01:29;129;119;
72793;PMS5003;63436;26.334;50.194;2022-12-18T16:03:54;125;119;
72793;PMS5003;63436;26.334;50.194;2022-12-18T16:06:19;126;123;
72793;PMS5003;63436;26.334;50.194;2022-12-18T16:08:44;120;115;
72793;PMS5003;63436;26.334;50.194;2022-12-18T16:11:11;125;117;
72793;PMS5003;63436;26.334;50.194;2022-12-18T16:13:35;130;116;
72793;PMS5003;63436;26.334;50.194;2022-12-18T16:16:01;120;115;